Time;durP1;ratioP1;P1;durP2;ratioP2;P2;SDS_P1;SDS_P2;PMS_P1;PMS_P2;Temp;Humidity;BMP_temperature;BMP_pressure;BME280_temperature;BME280_humidity;BME280_pressure;Samples;Min_cycle;Max_cycle;Signal;HPM_P1;HPM_P2
2023/05/13 00:01:14;;;;;;;8.25;5.45;;;13.40;99.90;;;;;;5003646;28;20033;-85
2023/05/13 00:03:40;;;;;;;6.53;5.18;;;13.50;99.90;;;;;;4986551;28;20041;-84
2023/05/13 00:06:06;;;;;;;7.80;5.10;;;13.40;99.90;;;;;;5014663;28;20489;-84
2023/05/13 00:08:32;;;;;;;7.45;5.53;;;13.40;99.90;;;;;;5019034;28;20127;-84
2023/05/13 00:10:57;;;;;;;7.53;4.90;;;13.30;99.90;;;;;;5001040;28;20123;-84
2023/05/13 00:13:23;;;;;;;6.45;4.75;;;13.30;99.90;;;;;;5019299;28;20055;-84
2023/05/13 00:15:49;;;;;;;12.23;5.22;;;13.30;99.90;;;;;;4988107;28;20104;-83
2023/05/13 00:18:15;;;;;;;6.95;5.28;;;13.20;99.90;;;;;;5002410;28;20050;-84
2023/05/13 00:20:40;;;;;;;10.00;5.13;;;13.10;99.90;;;;;;4986189;28;20441;-84
2023/05/13 00:23:06;;;;;;;9.57;5.65;;;13.10;99.90;;;;;;5005616;28;20043;-84
2023/05/13 00:25:32;;;;;;;8.50;5.45;;;13.00;99.90;;;;;;5022817;28;20124;-84
2023/05/13 00:27:58;;;;;;;6.78;5.40;;;13.00;99.90;;;;;;5007226;28;20091;-84
2023/05/13 00:30:24;;;;;;;7.60;5.47;;;12.90;99.90;;;;;;5007139;28;20037;-84
2023/05/13 00:32:50;;;;;;;7.63;5.90;;;12.90;99.90;;;;;;5021829;28;20041;-84
2023/05/13 00:35:16;;;;;;;8.07;5.68;;;12.80;99.90;;;;;;4986902;28;20069;-83
2023/05/13 00:37:42;;;;;;;8.23;5.90;;;12.70;99.90;;;;;;5002513;28;20528;-84
2023/05/13 00:40:24;;;;;;;6.55;5.78;;;12.70;99.90;;;;;;5003108;28;20081;-84
2023/05/13 00:42:50;;;;;;;8.63;6.18;;;12.60;99.90;;;;;;5038512;28;20404;-84
2023/05/13 00:45:16;;;;;;;9.38;6.25;;;12.60;99.90;;;;;;5038812;28;20437;-85
2023/05/13 00:47:43;;;;;;;12.05;6.60;;;12.50;99.90;;;;;;5022184;28;20033;-83
2023/05/13 00:50:09;;;;;;;8.82;6.35;;;12.50;99.90;;;;;;4996728;28;20068;-83
2023/05/13 00:52:37;;;;;;;9.23;6.63;;;12.50;99.90;;;;;;5006220;28;20067;-84
2023/05/13 00:55:04;;;;;;;8.30;6.70;;;12.50;99.90;;;;;;5038381;28;20087;-84
2023/05/13 00:57:30;;;;;;;10.85;6.80;;;12.40;99.90;;;;;;4989589;28;20414;-83
2023/05/13 00:59:56;;;;;;;7.97;6.80;;;12.40;99.90;;;;;;5038287;28;20144;-85
2023/05/13 01:02:33;;;;;;;13.45;7.40;;;12.30;99.90;;;;;;5020620;28;20041;-84
2023/05/13 01:05:11;;;;;;;9.82;6.68;;;12.30;99.90;;;;;;5037867;28;20037;-84
2023/05/13 01:08:08;;;;;;;10.45;7.20;;;12.20;99.90;;;;;;5013934;28;20400;-84
2023/05/13 01:10:46;;;;;;;11.57;7.72;;;12.20;99.90;;;;;;5002099;28;20033;-83
2023/05/13 01:13:17;;;;;;;10.82;7.05;;;12.20;99.90;;;;;;5002694;28;20045;-84
2023/05/13 01:16:10;;;;;;;12.07;7.95;;;12.10;99.90;;;;;;5038445;28;20132;-84
2023/05/13 01:18:39;;;;;;;11.68;8.00;;;12.10;99.90;;;;;;5020382;28;20045;-84
2023/05/13 01:21:07;;;;;;;13.63;7.30;;;12.10;99.90;;;;;;5011817;28;20061;-84
2023/05/13 01:23:32;;;;;;;11.43;6.95;;;12.00;99.90;;;;;;5000650;28;20129;-84
2023/05/13 01:25:58;;;;;;;11.93;7.80;;;12.00;99.90;;;;;;4987020;28;20124;-85
2023/05/13 01:28:24;;;;;;;11.30;7.65;;;12.00;99.90;;;;;;4988181;28;20051;-83
2023/05/13 01:30:50;;;;;;;15.43;7.25;;;12.00;99.90;;;;;;5004084;28;20110;-84
2023/05/13 01:33:17;;;;;;;9.88;7.53;;;12.00;99.90;;;;;;4996620;28;20104;-85
2023/05/13 01:35:44;;;;;;;8.93;7.57;;;11.90;99.90;;;;;;5034475;28;20409;-84
2023/05/13 01:38:10;;;;;;;10.30;7.38;;;11.90;99.90;;;;;;5017410;28;20053;-84
2023/05/13 01:40:37;;;;;;;10.63;7.47;;;11.90;99.90;;;;;;5017823;28;20405;-84
2023/05/13 01:43:03;;;;;;;9.32;7.28;;;11.90;99.90;;;;;;5003495;28;20056;-84
2023/05/13 01:45:29;;;;;;;10.82;7.22;;;11.90;99.90;;;;;;4988181;28;20477;-84
2023/05/13 01:47:55;;;;;;;9.00;8.10;;;11.90;99.90;;;;;;5003960;28;20041;-84
2023/05/13 01:50:21;;;;;;;9.60;7.90;;;11.90;99.90;;;;;;5004536;28;20047;-84
2023/05/13 01:52:46;;;;;;;13.10;7.65;;;11.80;99.90;;;;;;4999829;28;20041;-84
2023/05/13 01:55:14;;;;;;;16.45;8.35;;;11.80;99.90;;;;;;5017594;28;20049;-84
2023/05/13 01:57:40;;;;;;;11.95;8.35;;;11.70;99.90;;;;;;5036454;28;20127;-84
2023/05/13 02:00:07;;;;;;;9.38;7.65;;;11.70;99.90;;;;;;4996512;28;20133;-83
2023/05/13 02:02:32;;;;;;;10.00;7.30;;;11.70;99.90;;;;;;5020110;28;20037;-84
2023/05/13 02:04:58;;;;;;;12.45;8.10;;;11.70;99.90;;;;;;4985568;28;20489;-84
2023/05/13 02:07:24;;;;;;;10.73;8.57;;;11.70;99.90;;;;;;5005678;28;20516;-84
2023/05/13 02:09:49;;;;;;;10.80;8.90;;;11.60;99.90;;;;;;5020058;28;20052;-83
2023/05/13 02:12:15;;;;;;;10.88;7.60;;;11.60;99.90;;;;;;4982052;28;21538;-83
2023/05/13 02:14:41;;;;;;;11.68;8.75;;;11.60;99.90;;;;;;4995190;28;20401;-84
2023/05/13 02:17:07;;;;;;;8.82;7.70;;;11.60;99.90;;;;;;5020524;28;20060;-85
2023/05/13 02:19:32;;;;;;;11.93;8.02;;;11.60;99.90;;;;;;5002907;28;20064;-84
2023/05/13 02:21:58;;;;;;;10.90;8.70;;;11.60;99.90;;;;;;4981545;28;20051;-84
2023/05/13 02:24:24;;;;;;;12.10;8.85;;;11.50;99.90;;;;;;4994785;28;20037;-85
2023/05/13 02:26:51;;;;;;;11.23;8.57;;;11.50;99.90;;;;;;5001101;28;20160;-84
2023/05/13 02:29:17;;;;;;;13.65;8.40;;;11.40;99.90;;;;;;5016721;28;20036;-84
2023/05/13 02:31:43;;;;;;;10.02;8.63;;;11.40;99.90;;;;;;5003113;28;20033;-84
2023/05/13 02:34:08;;;;;;;13.18;8.95;;;11.40;99.90;;;;;;5001758;28;20128;-84
2023/05/13 02:36:34;;;;;;;15.85;8.98;;;11.40;99.90;;;;;;5002883;28;20378;-84
2023/05/13 02:39:00;;;;;;;11.02;9.20;;;11.40;99.90;;;;;;5000025;28;20049;-84
2023/05/13 02:41:25;;;;;;;12.90;8.73;;;11.40;99.90;;;;;;4983065;28;20080;-85
2023/05/13 02:43:51;;;;;;;11.88;8.80;;;11.30;99.90;;;;;;5003945;28;20047;-84
2023/05/13 02:46:17;;;;;;;11.52;8.65;;;11.30;99.90;;;;;;4996921;28;20026;-85
2023/05/13 02:48:42;;;;;;;12.60;8.68;;;11.20;99.90;;;;;;5002415;28;20484;-84
2023/05/13 02:51:08;;;;;;;13.50;8.43;;;11.20;99.90;;;;;;5018820;28;20040;-84
2023/05/13 02:53:34;;;;;;;10.02;8.60;;;11.20;99.90;;;;;;5019583;28;20029;-84
2023/05/13 02:55:59;;;;;;;11.27;8.07;;;11.20;99.90;;;;;;4987610;28;20093;-84
2023/05/13 02:58:25;;;;;;;14.10;8.45;;;11.20;99.90;;;;;;5003025;28;20481;-84
2023/05/13 03:00:51;;;;;;;12.05;9.10;;;11.10;99.90;;;;;;5005914;28;20048;-84
2023/05/13 03:03:16;;;;;;;12.48;8.95;;;11.20;99.90;;;;;;5015865;28;20041;-84
2023/05/13 03:05:42;;;;;;;13.02;9.07;;;11.20;99.90;;;;;;5016474;28;20064;-83
2023/05/13 03:08:08;;;;;;;15.63;9.63;;;11.20;99.90;;;;;;5018932;28;20496;-85
2023/05/13 03:10:34;;;;;;;10.07;9.02;;;11.20;99.90;;;;;;4994303;28;20040;-84
2023/05/13 03:12:59;;;;;;;11.52;9.02;;;11.20;99.90;;;;;;4982988;28;20042;-83
2023/05/13 03:15:25;;;;;;;12.52;9.27;;;11.20;99.90;;;;;;5015645;28;20052;-84
2023/05/13 03:17:51;;;;;;;12.00;9.43;;;11.10;99.90;;;;;;5015355;28;20049;-83
2023/05/13 03:20:17;;;;;;;13.27;9.30;;;11.10;99.90;;;;;;5020849;28;20080;-85
2023/05/13 03:22:43;;;;;;;12.68;9.10;;;11.10;99.90;;;;;;5002048;28;20081;-85
2023/05/13 03:25:09;;;;;;;11.48;8.80;;;11.10;99.90;;;;;;4999212;28;20037;-84
2023/05/13 03:27:35;;;;;;;12.98;9.75;;;11.00;99.90;;;;;;4999173;28;20037;-84
2023/05/13 03:30:00;;;;;;;11.60;8.95;;;11.00;99.90;;;;;;4970101;28;20098;-85
2023/05/13 03:32:29;;;;;;;12.75;8.85;;;11.00;99.90;;;;;;5018682;28;20114;-85
2023/05/13 03:34:56;;;;;;;13.63;9.18;;;10.90;99.90;;;;;;4987055;28;20099;-84
2023/05/13 03:37:23;;;;;;;11.95;9.65;;;10.90;99.90;;;;;;5002410;28;20041;-84
2023/05/13 03:39:49;;;;;;;13.25;9.35;;;10.90;99.90;;;;;;5001877;28;20492;-84
2023/05/13 03:42:15;;;;;;;15.43;10.68;;;10.90;99.90;;;;;;4986482;28;20055;-84
2023/05/13 03:44:41;;;;;;;16.75;9.60;;;10.90;99.90;;;;;;5002133;28;20049;-84
2023/05/13 03:47:06;;;;;;;12.40;10.05;;;11.00;99.90;;;;;;5018289;28;20048;-84
2023/05/13 03:49:32;;;;;;;11.93;10.13;;;10.80;99.90;;;;;;5018516;28;20404;-84
2023/05/13 03:51:58;;;;;;;14.13;9.88;;;10.80;99.90;;;;;;5001772;28;20048;-84
2023/05/13 03:54:23;;;;;;;14.20;9.65;;;10.70;99.90;;;;;;5002348;28;20044;-84
2023/05/13 03:56:49;;;;;;;11.95;9.90;;;10.70;99.90;;;;;;5017282;28;20076;-83
2023/05/13 03:59:15;;;;;;;15.23;10.45;;;10.70;99.90;;;;;;5005626;28;20056;-83
2023/05/13 04:01:40;;;;;;;11.90;9.98;;;10.60;99.90;;;;;;5002189;28;20048;-84
2023/05/13 04:04:06;;;;;;;16.10;10.45;;;10.60;99.90;;;;;;5018546;28;20443;-84
2023/05/13 04:06:32;;;;;;;14.55;11.05;;;10.60;99.90;;;;;;5002166;28;20124;-85
2023/05/13 04:08:58;;;;;;;17.45;11.18;;;10.60;99.90;;;;;;5001166;28;20036;-83
2023/05/13 04:11:23;;;;;;;12.85;10.07;;;10.50;99.90;;;;;;5002214;28;20095;-84
2023/05/13 04:13:49;;;;;;;14.10;10.80;;;10.50;99.90;;;;;;5033583;28;20032;-84
2023/05/13 04:16:16;;;;;;;13.70;11.02;;;10.50;99.90;;;;;;4966616;28;20278;-85
2023/05/13 04:18:41;;;;;;;12.98;10.50;;;10.50;99.90;;;;;;4983032;28;20099;-84
2023/05/13 04:21:08;;;;;;;17.90;11.93;;;10.50;99.90;;;;;;5001195;28;20053;-84
2023/05/13 04:23:34;;;;;;;15.63;10.65;;;10.40;99.90;;;;;;5018495;28;20111;-84
2023/05/13 04:26:00;;;;;;;16.25;11.75;;;10.40;99.90;;;;;;4985453;28;20512;-84
2023/05/13 04:28:26;;;;;;;16.88;11.73;;;10.40;99.90;;;;;;4981886;28;20112;-84
2023/05/13 04:30:52;;;;;;;15.27;12.20;;;10.50;99.90;;;;;;4987284;28;20061;-84
2023/05/13 04:33:17;;;;;;;15.85;12.32;;;10.40;99.90;;;;;;5013096;28;20496;-84
2023/05/13 04:35:43;;;;;;;17.60;11.90;;;10.50;99.90;;;;;;5018232;28;20072;-83
2023/05/13 04:38:09;;;;;;;13.23;11.23;;;10.50;99.90;;;;;;5001897;28;20036;-83
2023/05/13 04:40:35;;;;;;;14.68;11.30;;;10.50;99.90;;;;;;5001219;28;20064;-84
2023/05/13 04:43:00;;;;;;;15.98;12.80;;;10.50;99.90;;;;;;5001792;28;20041;-84
2023/05/13 04:45:26;;;;;;;17.02;12.68;;;10.50;99.90;;;;;;4985784;28;20048;-84
2023/05/13 04:47:52;;;;;;;14.13;11.70;;;10.50;99.90;;;;;;5000319;28;20510;-84
2023/05/13 04:50:17;;;;;;;16.88;11.88;;;10.50;99.90;;;;;;5034617;28;20040;-85
2023/05/13 04:52:44;;;;;;;15.73;12.85;;;10.50;99.90;;;;;;4985561;28;20037;-85
2023/05/13 04:55:10;;;;;;;15.05;12.38;;;10.50;99.90;;;;;;5016730;28;20404;-85
2023/05/13 04:57:36;;;;;;;16.85;13.00;;;10.60;99.90;;;;;;5014717;28;20052;-85
2023/05/13 05:00:03;;;;;;;18.95;13.00;;;10.70;99.90;;;;;;5036995;28;20045;-83
2023/05/13 05:02:29;;;;;;;17.83;13.20;;;10.60;99.90;;;;;;5003516;28;20094;-84
2023/05/13 05:04:55;;;;;;;17.35;12.30;;;10.70;99.90;;;;;;4987106;28;20120;-83
2023/05/13 05:07:21;;;;;;;14.90;12.52;;;10.70;99.90;;;;;;5013364;28;20034;-84
2023/05/13 05:09:47;;;;;;;16.85;13.23;;;10.80;99.90;;;;;;5013943;28;20040;-85
2023/05/13 05:12:13;;;;;;;17.88;11.90;;;10.80;99.90;;;;;;5035131;28;20041;-85
2023/05/13 05:14:39;;;;;;;17.73;12.90;;;10.80;99.90;;;;;;5004856;28;20044;-85
2023/05/13 05:17:05;;;;;;;18.88;14.18;;;10.90;99.90;;;;;;4979738;28;20309;-86
2023/05/13 05:19:30;;;;;;;16.45;12.98;;;10.90;99.90;;;;;;4998496;28;20049;-85
2023/05/13 05:21:57;;;;;;;17.98;13.32;;;11.00;99.90;;;;;;5003446;28;20132;-83
2023/05/13 05:24:22;;;;;;;19.15;12.35;;;11.00;99.90;;;;;;5031106;28;20095;-83
2023/05/13 05:26:48;;;;;;;20.73;13.48;;;11.10;99.90;;;;;;4972199;28;20069;-83
2023/05/13 05:29:14;;;;;;;15.75;12.20;;;11.20;99.90;;;;;;5020430;28;20044;-82
2023/05/13 05:31:40;;;;;;;18.92;12.75;;;11.20;99.90;;;;;;5005359;28;20041;-83
2023/05/13 05:34:05;;;;;;;19.55;13.43;;;11.30;99.90;;;;;;5004419;28;20037;-83
2023/05/13 05:36:31;;;;;;;21.08;12.40;;;11.30;99.90;;;;;;5018848;28;20033;-83
2023/05/13 05:38:57;;;;;;;16.73;11.73;;;11.30;99.90;;;;;;4986696;28;20043;-83
2023/05/13 05:41:23;;;;;;;15.15;11.68;;;11.40;99.90;;;;;;5002687;28;20120;-84
2023/05/13 05:43:49;;;;;;;17.95;12.82;;;11.50;99.90;;;;;;4985925;28;20098;-83
2023/05/13 05:46:15;;;;;;;14.95;12.45;;;11.50;99.90;;;;;;4991810;28;20037;-83
2023/05/13 05:48:41;;;;;;;16.75;12.95;;;11.50;99.90;;;;;;5020093;28;20389;-84
2023/05/13 05:51:07;;;;;;;15.80;12.80;;;11.60;99.90;;;;;;5003026;28;20048;-83
2023/05/13 05:53:34;;;;;;;13.90;12.40;;;11.70;99.90;;;;;;5001471;28;20030;-84
2023/05/13 05:56:00;;;;;;;17.63;11.88;;;11.80;99.90;;;;;;5018298;28;20503;-85
2023/05/13 05:58:25;;;;;;;18.67;12.82;;;11.80;99.90;;;;;;5001879;28;20037;-85
2023/05/13 06:00:53;;;;;;;18.23;12.13;;;11.90;99.90;;;;;;5001913;28;20038;-85
2023/05/13 06:03:19;;;;;;;14.25;11.55;;;12.00;99.90;;;;;;5018885;28;20123;-85
2023/05/13 06:05:45;;;;;;;15.80;12.52;;;12.00;99.90;;;;;;4988369;28;20041;-84
2023/05/13 06:08:11;;;;;;;16.58;10.90;;;12.10;99.90;;;;;;4989823;28;20064;-84
2023/05/13 06:10:37;;;;;;;16.10;11.57;;;12.20;99.90;;;;;;4999486;28;20037;-85
2023/05/13 06:13:03;;;;;;;18.52;11.77;;;12.30;99.90;;;;;;4998325;28;20044;-84
2023/05/13 06:15:29;;;;;;;19.67;11.35;;;12.40;99.90;;;;;;5024882;28;20072;-84
2023/05/13 06:17:55;;;;;;;17.70;12.15;;;12.50;99.90;;;;;;5019875;28;20041;-84
2023/05/13 06:20:21;;;;;;;13.65;11.55;;;12.50;99.90;;;;;;5003112;28;20408;-83
2023/05/13 06:22:47;;;;;;;17.40;11.73;;;12.70;99.90;;;;;;4989475;28;20132;-85
2023/05/13 06:25:13;;;;;;;12.90;11.35;;;12.70;99.90;;;;;;5005679;28;20038;-84
2023/05/13 06:27:38;;;;;;;14.05;11.23;;;12.90;99.90;;;;;;4998781;28;20037;-86
2023/05/13 06:30:05;;;;;;;15.73;11.70;;;13.00;99.90;;;;;;5001132;28;20045;-83
2023/05/13 06:32:31;;;;;;;20.20;12.52;;;13.10;99.90;;;;;;5032333;28;20045;-85
2023/05/13 06:34:57;;;;;;;18.60;11.32;;;13.30;99.90;;;;;;5002794;28;20114;-85
2023/05/13 06:37:22;;;;;;;13.52;10.00;;;13.40;99.90;;;;;;5004747;28;20041;-85
2023/05/13 06:39:48;;;;;;;17.33;10.48;;;13.70;99.90;;;;;;5002639;28;20079;-85
2023/05/13 06:42:14;;;;;;;15.38;9.95;;;14.20;99.90;;;;;;5026815;28;20084;-85
2023/05/13 06:44:40;;;;;;;14.57;9.57;;;14.70;99.90;;;;;;4984412;28;20516;-83
2023/05/13 06:47:07;;;;;;;16.30;9.60;;;15.20;99.90;;;;;;5016123;28;20045;-84
2023/05/13 06:49:33;;;;;;;12.32;8.48;;;15.60;99.90;;;;;;5036070;28;20116;-85
2023/05/13 06:51:58;;;;;;;13.82;8.35;;;16.00;99.90;;;;;;5001111;28;20033;-85
2023/05/13 06:54:26;;;;;;;13.15;8.70;;;16.40;99.90;;;;;;5016385;28;20068;-85
2023/05/13 06:56:53;;;;;;;12.60;8.27;;;16.70;99.90;;;;;;4988746;28;20051;-85
2023/05/13 06:59:20;;;;;;;11.73;8.25;;;16.80;99.90;;;;;;5018916;28;20044;-84
2023/05/13 07:01:46;;;;;;;10.32;8.30;;;16.80;99.90;;;;;;5019602;28;20128;-85
2023/05/13 07:04:12;;;;;;;18.40;9.55;;;16.80;99.90;;;;;;5034394;28;20072;-83
2023/05/13 07:06:39;;;;;;;13.27;8.40;;;17.00;99.90;;;;;;5003994;28;20107;-83
2023/05/13 07:09:05;;;;;;;12.57;7.88;;;17.20;99.90;;;;;;5003522;28;20401;-86
2023/05/13 07:11:31;;;;;;;13.25;8.13;;;17.50;99.90;;;;;;4987962;28;20033;-84
2023/05/13 07:13:56;;;;;;;13.82;8.32;;;17.60;99.90;;;;;;4993386;28;20116;-85
2023/05/13 07:16:22;;;;;;;11.25;7.90;;;17.80;99.90;;;;;;4999795;28;20505;-85
2023/05/13 07:18:48;;;;;;;11.52;7.10;;;17.90;99.90;;;;;;4999987;28;20045;-85
2023/05/13 07:21:16;;;;;;;13.93;7.45;;;18.10;99.90;;;;;;5002222;28;20132;-85
2023/05/13 07:23:42;;;;;;;13.98;7.90;;;18.40;99.90;;;;;;5003272;28;20041;-85
2023/05/13 07:26:08;;;;;;;9.95;7.47;;;18.50;99.90;;;;;;5001322;28;20767;-85
2023/05/13 07:28:33;;;;;;;10.60;7.82;;;18.70;99.90;;;;;;5004925;28;20120;-84
2023/05/13 07:30:59;;;;;;;9.52;7.43;;;18.80;99.90;;;;;;5031407;28;20544;-83
2023/05/13 07:33:25;;;;;;;12.77;7.32;;;18.80;99.90;;;;;;5015261;28;20520;-84
2023/05/13 07:35:50;;;;;;;10.82;7.50;;;18.90;99.90;;;;;;4996618;28;20136;-85
2023/05/13 07:38:16;;;;;;;14.15;7.47;;;18.90;99.90;;;;;;4981190;28;20500;-84
2023/05/13 07:40:42;;;;;;;9.02;7.00;;;19.00;99.90;;;;;;4984975;28;20049;-84
2023/05/13 07:43:08;;;;;;;10.82;7.47;;;19.10;99.90;;;;;;4993563;28;20096;-84
2023/05/13 07:45:34;;;;;;;13.68;7.30;;;19.10;99.90;;;;;;5017933;28;20069;-85
2023/05/13 07:48:00;;;;;;;8.63;6.72;;;19.10;99.90;;;;;;4999604;28;20116;-84
2023/05/13 07:50:26;;;;;;;8.27;7.15;;;19.20;99.90;;;;;;4999495;28;20137;-84
2023/05/13 07:52:51;;;;;;;9.55;6.85;;;19.30;99.90;;;;;;4998198;28;20068;-84
2023/05/13 07:55:17;;;;;;;9.38;6.90;;;19.40;99.90;;;;;;4998446;28;20095;-85
2023/05/13 07:57:43;;;;;;;11.35;6.68;;;19.60;99.90;;;;;;4994558;28;20037;-85
2023/05/13 08:00:09;;;;;;;13.35;7.20;;;19.60;99.90;;;;;;5002416;28;20041;-85
2023/05/13 08:02:38;;;;;;;10.40;6.78;;;19.60;99.90;;;;;;4986857;28;20191;-84
2023/05/13 08:05:05;;;;;;;11.20;6.60;;;19.70;99.90;;;;;;5018573;28;20123;-84
2023/05/13 08:07:31;;;;;;;12.60;6.68;;;19.60;99.90;;;;;;5018727;28;20033;-83
2023/05/13 08:09:56;;;;;;;10.00;6.10;;;19.60;99.90;;;;;;5001873;28;20477;-84
2023/05/13 08:12:22;;;;;;;8.38;6.45;;;19.70;99.90;;;;;;4986375;28;20346;-84
2023/05/13 08:14:48;;;;;;;13.10;6.93;;;19.80;99.90;;;;;;4968199;28;20493;-84
2023/05/13 08:17:13;;;;;;;9.60;6.10;;;19.90;99.90;;;;;;4965928;28;20037;-84
2023/05/13 08:19:39;;;;;;;10.90;6.07;;;19.90;99.90;;;;;;4968047;28;20136;-84
2023/05/13 08:22:05;;;;;;;10.30;6.13;;;20.00;99.90;;;;;;4995000;28;20042;-84
2023/05/13 08:24:31;;;;;;;12.02;6.40;;;20.10;99.90;;;;;;4963707;28;20074;-83
2023/05/13 08:26:56;;;;;;;9.27;6.03;;;20.10;99.90;;;;;;4982632;28;20083;-84
2023/05/13 08:29:22;;;;;;;8.48;5.88;;;20.10;99.90;;;;;;5014044;28;20042;-84
2023/05/13 08:31:48;;;;;;;14.82;5.93;;;20.10;99.90;;;;;;4995385;28;20058;-84
2023/05/13 08:34:14;;;;;;;9.77;5.65;;;20.20;99.90;;;;;;4996899;28;20033;-84
2023/05/13 08:36:40;;;;;;;11.30;5.65;;;20.30;99.90;;;;;;5001686;28;20037;-83
2023/05/13 08:39:06;;;;;;;9.68;5.72;;;20.40;99.90;;;;;;4969226;28;20033;-84
2023/05/13 08:41:33;;;;;;;10.98;5.20;;;20.50;99.90;;;;;;5014612;28;20045;-85
2023/05/13 08:44:02;;;;;;;8.18;4.75;;;20.60;99.90;;;;;;5014787;28;20385;-85
2023/05/13 08:46:31;;;;;;;8.55;4.80;;;20.70;99.90;;;;;;5014351;28;20042;-83
2023/05/13 08:48:57;;;;;;;7.38;4.93;;;20.80;99.90;;;;;;5002245;28;20045;-83
2023/05/13 08:51:23;;;;;;;9.35;4.78;;;20.90;99.90;;;;;;5011397;28;20045;-84
2023/05/13 08:53:51;;;;;;;9.27;4.65;;;21.00;99.90;;;;;;4986615;28;20160;-84
2023/05/13 08:56:16;;;;;;;12.95;5.53;;;21.10;99.90;;;;;;5000850;28;20120;-83
2023/05/13 08:58:42;;;;;;;11.93;5.57;;;21.20;99.90;;;;;;4982909;28;20124;-84
2023/05/13 09:01:08;;;;;;;6.40;5.15;;;21.30;99.90;;;;;;4973973;28;20037;-84
2023/05/13 09:03:35;;;;;;;7.97;6.15;;;21.40;99.90;;;;;;5002193;28;20046;-85
2023/05/13 09:06:01;;;;;;;14.38;6.47;;;21.40;99.90;;;;;;5002092;28;20041;-84
2023/05/13 09:08:27;;;;;;;9.70;5.75;;;21.40;99.90;;;;;;4999218;28;20120;-84
2023/05/13 09:10:53;;;;;;;6.65;5.30;;;21.30;99.90;;;;;;5001526;28;20088;-84
2023/05/13 09:13:20;;;;;;;10.70;5.70;;;21.40;99.90;;;;;;4988473;28;20120;-84
2023/05/13 09:15:46;;;;;;;9.95;5.40;;;21.40;99.90;;;;;;5015617;28;20041;-85
2023/05/13 09:18:14;;;;;;;9.50;5.28;;;21.50;99.90;;;;;;5018168;28;20183;-85
2023/05/13 09:20:40;;;;;;;8.52;4.85;;;21.50;99.90;;;;;;5007399;28;20038;-84
2023/05/13 09:23:08;;;;;;;8.25;4.90;;;21.60;99.90;;;;;;4998681;28;20366;-84
2023/05/13 09:25:36;;;;;;;9.48;5.32;;;21.70;99.90;;;;;;5034731;28;20056;-84
2023/05/13 09:28:04;;;;;;;8.35;5.50;;;21.70;99.90;;;;;;5017666;28;20044;-85
2023/05/13 09:30:34;;;;;;;8.90;5.40;;;21.70;99.90;;;;;;5017620;28;20033;-84
2023/05/13 09:33:11;;;;;;;8.20;5.38;;;21.70;99.90;;;;;;5015883;28;20029;-85
2023/05/13 09:35:42;;;;;;;10.05;4.68;;;21.70;99.90;;;;;;5012470;28;20048;-85
2023/05/13 09:38:30;;;;;;;6.07;4.50;;;21.70;99.90;;;;;;5034307;28;20128;-84
2023/05/13 09:41:00;;;;;;;6.03;3.78;;;21.60;99.00;;;;;;5018025;28;20453;-83
2023/05/13 09:43:32;;;;;;;7.47;4.30;;;21.50;98.80;;;;;;4984639;28;20053;-84
2023/05/13 09:46:03;;;;;;;12.82;4.10;;;21.40;98.20;;;;;;4984002;28;20052;-84
2023/05/13 09:48:31;;;;;;;8.80;3.92;;;21.30;97.70;;;;;;5033452;28;20048;-84
2023/05/13 09:50:58;;;;;;;10.18;4.18;;;21.20;97.70;;;;;;5017872;28;20041;-84
2023/05/13 09:53:27;;;;;;;9.60;3.88;;;21.10;97.80;;;;;;4994566;28;20044;-84
2023/05/13 09:55:55;;;;;;;8.30;3.72;;;21.20;97.90;;;;;;5031092;28;20128;-85
2023/05/13 09:58:23;;;;;;;6.28;3.50;;;21.10;97.10;;;;;;5034021;28;20099;-85
2023/05/13 10:00:50;;;;;;;7.20;3.03;;;21.10;96.30;;;;;;5016779;28;20041;-85
2023/05/13 10:03:15;;;;;;;8.45;4.20;;;21.10;95.90;;;;;;5014619;28;20537;-85
2023/05/13 10:05:42;;;;;;;7.60;3.13;;;21.10;95.20;;;;;;4977145;28;20049;-85
2023/05/13 10:08:14;;;;;;;9.93;3.58;;;21.20;94.90;;;;;;5023974;28;20045;-85
2023/05/13 10:10:42;;;;;;;7.32;3.22;;;21.10;94.20;;;;;;5001038;28;20396;-84
2023/05/13 10:13:09;;;;;;;6.35;3.10;;;21.20;94.60;;;;;;5017250;28;20034;-85
2023/05/13 10:15:36;;;;;;;8.95;3.60;;;21.20;93.80;;;;;;4977760;28;20049;-84
2023/05/13 10:18:04;;;;;;;11.93;3.47;;;21.20;93.90;;;;;;4999891;28;20413;-84
2023/05/13 10:20:30;;;;;;;5.55;3.10;;;21.20;94.10;;;;;;4997560;28;20058;-84
2023/05/13 10:22:56;;;;;;;7.07;3.20;;;21.30;94.10;;;;;;4981828;28;20050;-84
2023/05/13 10:25:22;;;;;;;5.60;3.35;;;21.30;94.00;;;;;;5003542;28;20038;-83
2023/05/13 10:27:50;;;;;;;5.72;3.17;;;21.30;93.80;;;;;;4981758;28;20140;-83
2023/05/13 10:30:17;;;;;;;4.57;2.90;;;21.30;93.90;;;;;;5031111;28;20103;-85
2023/05/13 10:32:43;;;;;;;5.63;3.15;;;21.40;93.90;;;;;;5008825;28;20037;-83
2023/05/13 10:35:15;;;;;;;8.10;3.80;;;21.40;94.00;;;;;;5007314;28;20132;-83
2023/05/13 10:38:14;;;;;;;8.02;3.13;;;21.50;93.90;;;;;;5015394;28;20047;-84
2023/05/13 10:41:29;;;;;;;8.45;3.20;;;21.50;93.80;;;;;;5016530;28;20042;-84
2023/05/13 10:43:57;;;;;;;6.57;3.00;;;21.50;93.40;;;;;;5016635;28;20389;-84
2023/05/13 10:46:23;;;;;;;7.10;2.88;;;21.60;92.10;;;;;;5015043;28;20048;-84
2023/05/13 10:48:53;;;;;;;6.47;2.90;;;21.70;91.70;;;;;;4997228;28;20120;-84
2023/05/13 10:51:23;;;;;;;12.60;3.88;;;21.70;91.00;;;;;;5016735;28;20041;-83
2023/05/13 10:53:54;;;;;;;8.75;3.22;;;21.70;90.20;;;;;;5011052;28;20493;-84
2023/05/13 10:56:25;;;;;;;7.50;3.22;;;21.70;90.30;;;;;;5015292;28;20041;-84
2023/05/13 10:59:02;;;;;;;7.75;3.25;;;21.70;89.00;;;;;;5007143;28;20046;-88
2023/05/13 11:01:41;;;;;;;8.77;3.05;;;21.70;90.00;;;;;;4992624;28;20037;-87
2023/05/13 11:04:12;;;;;;;10.90;3.22;;;21.70;89.80;;;;;;5014232;28;20041;-84
2023/05/13 11:06:40;;;;;;;5.28;3.13;;;21.80;89.60;;;;;;5015827;28;20038;-85
2023/05/13 11:09:10;;;;;;;5.65;3.30;;;21.80;89.80;;;;;;4998606;28;20489;-84
2023/05/13 11:11:36;;;;;;;9.18;3.20;;;21.90;88.40;;;;;;5016265;28;20037;-84
2023/05/13 11:14:19;;;;;;;7.53;3.03;;;22.00;87.20;;;;;;5015766;28;20203;-84
2023/05/13 11:16:55;;;;;;;3.92;3.22;;;22.00;86.50;;;;;;5016511;28;20442;-84
2023/05/13 11:19:34;;;;;;;5.45;3.10;;;22.10;86.60;;;;;;5016869;28;20494;-85
2023/05/13 11:22:18;;;;;;;5.55;2.90;;;22.20;86.30;;;;;;5019729;28;20080;-84
2023/05/13 11:24:45;;;;;;;7.88;2.97;;;22.30;86.40;;;;;;5019356;28;20045;-84
2023/05/13 11:27:17;;;;;;;7.85;3.10;;;22.30;86.00;;;;;;5018610;28;20519;-85
2023/05/13 11:29:55;;;;;;;6.93;3.20;;;22.40;85.10;;;;;;5015423;28;20504;-85
2023/05/13 11:32:54;;;;;;;5.57;3.28;;;22.40;83.80;;;;;;4996415;28;20038;-84
2023/05/13 11:35:25;;;;;;;9.18;2.85;;;22.40;83.50;;;;;;5015748;28;20128;-85
2023/05/13 11:37:51;;;;;;;7.32;3.00;;;22.40;81.30;;;;;;5004290;28;20496;-84
2023/05/13 11:40:29;;;;;;;8.70;3.00;;;22.30;80.60;;;;;;5002322;28;20044;-85
2023/05/13 11:42:55;;;;;;;4.85;2.90;;;22.30;79.40;;;;;;5002756;28;20080;-84
2023/05/13 11:45:23;;;;;;;4.53;2.97;;;22.30;80.60;;;;;;5002516;28;20507;-84
2023/05/13 11:47:49;;;;;;;8.90;2.80;;;22.30;80.10;;;;;;5017160;28;20064;-84
2023/05/13 11:50:31;;;;;;;7.13;3.03;;;22.40;79.70;;;;;;5015087;28;20037;-84
2023/05/13 11:52:59;;;;;;;5.50;3.08;;;22.40;78.80;;;;;;4999585;28;20132;-84
2023/05/13 11:55:35;;;;;;;8.57;3.25;;;22.40;79.20;;;;;;4999185;28;20049;-85
2023/05/13 11:58:01;;;;;;;;;;;22.40;78.90;;;;;;5015675;28;20552;-85
2023/05/13 12:00:32;;;;;;;5.03;3.08;;;22.50;76.10;;;;;;5018739;28;19959;-84
2023/05/13 12:02:58;;;;;;;8.30;3.30;;;22.50;78.50;;;;;;5018693;28;20066;-85
2023/05/13 12:05:25;;;;;;;4.07;2.65;;;22.60;77.10;;;;;;5034729;28;20048;-85
2023/05/13 12:07:55;;;;;;;4.78;2.42;;;22.60;76.40;;;;;;5022455;28;20033;-85
2023/05/13 12:10:21;;;;;;;4.32;2.63;;;22.60;76.30;;;;;;5024872;28;20174;-84
2023/05/13 12:12:47;;;;;;;7.70;3.17;;;22.60;75.80;;;;;;4992274;28;20044;-85
2023/05/13 12:15:15;;;;;;;6.10;2.80;;;22.70;74.90;;;;;;5008725;28;20041;-84
2023/05/13 12:17:42;;;;;;;7.82;2.95;;;22.70;73.90;;;;;;5023935;28;20047;-85
2023/05/13 12:20:15;;;;;;;5.70;2.75;;;22.80;73.80;;;;;;5023802;28;20195;-85
2023/05/13 12:22:44;;;;;;;5.18;2.80;;;22.90;72.40;;;;;;5038759;28;20049;-84
2023/05/13 12:25:35;;;;;;;8.18;2.90;;;22.90;73.00;;;;;;5021644;28;20040;-84
2023/05/13 12:28:25;;;;;;;3.83;2.60;;;23.00;73.90;;;;;;5041960;28;20033;-88
2023/05/13 12:31:04;;;;;;;8.18;3.15;;;23.10;74.50;;;;;;5016748;28;20052;-87
2023/05/13 12:33:41;;;;;;;4.70;3.13;;;23.30;75.30;;;;;;5026206;28;20392;-88
2023/05/13 12:36:34;;;;;;;5.75;2.80;;;23.40;75.90;;;;;;5022835;28;20454;-85
2023/05/13 12:39:05;;;;;;;4.65;2.60;;;23.70;74.20;;;;;;5020973;28;20045;-83
2023/05/13 12:41:33;;;;;;;6.35;2.72;;;23.80;73.70;;;;;;5042229;28;20132;-83